Time;durP1;ratioP1;P1;durP2;ratioP2;P2;SDS_P1;SDS_P2;PMS_P1;PMS_P2;Temp;Humidity;BMP_temperature;BMP_pressure;BME280_temperature;BME280_humidity;BME280_pressure;Samples;Min_cycle;Max_cycle;Signal;HPM_P1;HPM_P2
2023/04/25 00:01:40;;;;;;;7.20;5.55;;;;;10.00;97915.00;;;;5053693;28;20049;-59
2023/04/25 00:04:07;;;;;;;7.88;5.93;;;;;10.00;97917.00;;;;5053253;28;20041;-59
2023/04/25 00:06:36;;;;;;;7.47;6.25;;;;;10.00;97916.00;;;;5051941;28;20084;-59
2023/04/25 00:09:07;;;;;;;7.40;6.00;;;;;10.00;97914.00;;;;5053265;28;20051;-59
2023/04/25 00:11:34;;;;;;;9.10;7.22;;;;;10.00;97918.00;;;;5052256;28;20049;-58
2023/04/25 00:14:02;;;;;;;12.38;7.35;;;;;10.10;97914.00;;;;5053318;28;20045;-58
2023/04/25 00:16:30;;;;;;;10.30;7.90;;;;;10.10;97911.00;;;;5053367;28;20090;-57
2023/04/25 00:18:58;;;;;;;10.27;8.45;;;;;10.10;97910.00;;;;5052937;28;20048;-58
2023/04/25 00:21:25;;;;;;;15.80;8.50;;;;;10.10;97912.00;;;;5054411;28;20090;-59
2023/04/25 00:23:55;;;;;;;10.43;8.70;;;;;10.10;97906.00;;;;5053317;28;20048;-56
2023/04/25 00:26:22;;;;;;;10.32;7.72;;;;;10.20;97909.00;;;;5053253;28;20040;-58
2023/04/25 00:28:48;;;;;;;11.05;8.10;;;;;10.20;97912.00;;;;5052728;28;20056;-58
2023/04/25 00:31:15;;;;;;;12.57;8.45;;;;;10.30;97913.00;;;;5052973;28;20052;-57
2023/04/25 00:33:42;;;;;;;11.00;8.52;;;;;10.30;97912.00;;;;5051809;28;20045;-58
2023/04/25 00:36:08;;;;;;;10.05;8.05;;;;;10.30;97913.00;;;;5051788;28;20666;-58
2023/04/25 00:38:35;;;;;;;11.68;8.93;;;;;10.30;97911.00;;;;5051377;28;20045;-58
2023/04/25 00:41:02;;;;;;;10.80;8.38;;;;;10.30;97908.00;;;;5051593;28;20057;-57
2023/04/25 00:43:30;;;;;;;10.05;8.30;;;;;10.20;97902.00;;;;5051531;28;20087;-58
2023/04/25 00:45:59;;;;;;;10.18;8.20;;;;;10.30;97907.00;;;;5052869;28;20045;-59
2023/04/25 00:48:25;;;;;;;11.00;8.70;;;;;10.30;97895.00;;;;5051331;28;20053;-57
2023/04/25 00:50:56;;;;;;;10.32;8.00;;;;;10.30;97894.00;;;;5051257;28;20049;-57
2023/04/25 00:53:24;;;;;;;9.57;7.75;;;;;10.30;97890.00;;;;5052534;28;20037;-58
2023/04/25 00:55:51;;;;;;;10.27;7.88;;;;;10.10;97886.00;;;;5051409;28;20045;-58
2023/04/25 00:58:19;;;;;;;9.80;8.15;;;;;10.00;97881.00;;;;5051070;28;20048;-57
2023/04/25 01:00:47;;;;;;;10.23;8.52;;;;;10.00;97886.00;;;;5051199;28;20045;-56
2023/04/25 01:03:16;;;;;;;11.70;8.02;;;;;10.00;97888.00;;;;5052621;28;20452;-56
2023/04/25 01:05:43;;;;;;;10.25;7.45;;;;;10.00;97894.00;;;;5052300;28;20033;-57
2023/04/25 01:08:10;;;;;;;9.55;7.80;;;;;10.00;97892.00;;;;5052400;28;20052;-57
2023/04/25 01:10:37;;;;;;;10.13;8.05;;;;;9.90;97893.00;;;;5050910;28;20112;-57
2023/04/25 01:13:03;;;;;;;9.68;7.50;;;;;9.90;97882.00;;;;5052194;28;20132;-56
2023/04/25 01:15:30;;;;;;;9.00;7.43;;;;;9.90;97882.00;;;;5052366;28;20449;-57
2023/04/25 01:17:58;;;;;;;10.07;7.63;;;;;9.90;97883.00;;;;5052484;28;20559;-58
2023/04/25 01:20:26;;;;;;;10.63;8.30;;;;;9.90;97879.00;;;;5051847;28;20413;-57
2023/04/25 01:22:53;;;;;;;10.77;7.35;;;;;9.90;97884.00;;;;5050870;28;20048;-56
2023/04/25 01:25:20;;;;;;;10.02;7.35;;;;;9.90;97876.00;;;;5052020;28;20477;-56
2023/04/25 01:27:47;;;;;;;8.82;7.20;;;;;9.90;97885.00;;;;5051901;28;20045;-56
2023/04/25 01:30:14;;;;;;;9.80;7.72;;;;;9.80;97886.00;;;;5050059;28;20617;-58
2023/04/25 01:32:42;;;;;;;11.40;8.30;;;;;9.80;97882.00;;;;5050691;28;20510;-56
2023/04/25 01:35:11;;;;;;;8.82;7.55;;;;;9.80;97889.00;;;;5052019;28;20116;-56
2023/04/25 01:37:41;;;;;;;8.65;7.18;;;;;9.80;97891.00;;;;5052114;28;20513;-55
2023/04/25 01:40:11;;;;;;;9.82;7.22;;;;;9.80;97885.00;;;;5050549;28;20045;-55
2023/04/25 01:42:40;;;;;;;11.38;8.75;;;;;9.70;97883.00;;;;5050481;28;20079;-55
2023/04/25 01:45:08;;;;;;;9.32;7.22;;;;;9.70;97886.00;;;;5050587;28;20045;-57
2023/04/25 01:47:37;;;;;;;8.10;6.82;;;;;9.70;97890.00;;;;5051884;28;20049;-55
2023/04/25 01:50:05;;;;;;;8.93;7.30;;;;;9.70;97886.00;;;;5050525;28;20052;-55
2023/04/25 01:52:32;;;;;;;8.77;6.90;;;;;9.70;97886.00;;;;5052420;28;20045;-54
2023/04/25 01:55:01;;;;;;;10.35;7.28;;;;;9.60;97887.00;;;;5053882;28;20102;-58
2023/04/25 01:57:30;;;;;;;9.32;7.35;;;;;9.60;97888.00;;;;5055792;28;20091;-58
2023/04/25 02:00:00;;;;;;;10.32;7.47;;;;;9.60;97886.00;;;;5056655;28;20686;-57
2023/04/25 02:02:44;;;;;;;8.35;7.20;;;;;9.60;97887.00;;;;5059817;28;20118;-58
2023/04/25 02:05:36;;;;;;;9.57;6.53;;;;;9.70;97875.00;;;;5057249;28;20124;-58
2023/04/25 02:08:06;;;;;;;8.93;7.23;;;;;9.70;97877.00;;;;5057635;28;20041;-58
2023/04/25 02:10:34;;;;;;;8.00;6.55;;;;;9.70;97871.00;;;;5054476;28;20291;-56
2023/04/25 02:13:08;;;;;;;9.07;6.13;;;;;9.70;97876.00;;;;5050557;28;20045;-57
2023/04/25 02:15:55;;;;;;;9.25;6.93;;;;;9.60;97874.00;;;;5051727;28;20569;-57
2023/04/25 02:18:22;;;;;;;8.68;6.43;;;;;9.60;97877.00;;;;5050307;28;20052;-56
2023/04/25 02:20:48;;;;;;;9.13;6.85;;;;;9.60;97875.00;;;;5050605;28;20144;-55
2023/04/25 02:23:19;;;;;;;6.93;6.10;;;;;9.70;97872.00;;;;5050401;28;20094;-55
2023/04/25 02:25:45;;;;;;;6.65;5.82;;;;;9.70;97873.00;;;;5051574;28;20041;-57
2023/04/25 02:28:12;;;;;;;8.68;5.65;;;;;9.80;97874.00;;;;5050441;28;20536;-57
2023/04/25 02:30:39;;;;;;;6.47;5.10;;;;;9.80;97873.00;;;;5050149;28;20485;-56
2023/04/25 02:33:06;;;;;;;6.57;5.38;;;;;9.80;97872.00;;;;5050189;28;20053;-59
2023/04/25 02:35:32;;;;;;;5.82;5.22;;;;;9.80;97880.00;;;;5051615;28;20486;-55
2023/04/25 02:37:59;;;;;;;6.35;5.50;;;;;9.80;97864.00;;;;5050267;28;20041;-55
2023/04/25 02:40:26;;;;;;;6.30;5.03;;;;;9.80;97868.00;;;;5049996;28;20126;-55
2023/04/25 02:42:53;;;;;;;5.13;4.40;;;;;9.70;97872.00;;;;5053061;28;20043;-56
2023/04/25 02:45:19;;;;;;;6.10;4.80;;;;;9.70;97869.00;;;;5053889;28;20041;-55
2023/04/25 02:47:46;;;;;;;5.53;4.90;;;;;9.70;97866.00;;;;5053714;28;20663;-55
2023/04/25 02:50:12;;;;;;;5.72;5.15;;;;;9.70;97869.00;;;;5054588;28;20047;-57
2023/04/25 02:52:40;;;;;;;6.63;5.30;;;;;9.70;97857.00;;;;5053732;28;20052;-55
2023/04/25 02:55:14;;;;;;;6.85;5.00;;;;;9.70;97854.00;;;;5053662;28;20064;-56
2023/04/25 02:57:42;;;;;;;5.45;4.82;;;;;9.70;97860.00;;;;5053540;28;20041;-54
2023/04/25 03:00:14;;;;;;;7.22;5.25;;;;;9.60;97860.00;;;;5053438;28;20057;-56
2023/04/25 03:02:40;;;;;;;6.43;5.60;;;;;9.50;97867.00;;;;5054565;28;20052;-56
2023/04/25 03:05:07;;;;;;;6.35;5.38;;;;;9.50;97859.00;;;;5053180;28;20090;-58
2023/04/25 03:07:35;;;;;;;7.55;5.10;;;;;9.50;97860.00;;;;5037413;28;20052;-55
2023/04/25 03:10:02;;;;;;;6.15;4.88;;;;;9.60;97862.00;;;;5054425;28;20044;-56
2023/04/25 03:12:30;;;;;;;7.00;5.10;;;;;9.60;97864.00;;;;5053149;28;20060;-55
2023/04/25 03:14:57;;;;;;;8.02;5.38;;;;;9.60;97862.00;;;;5053281;28;20474;-55
2023/04/25 03:17:23;;;;;;;7.72;5.70;;;;;9.60;97871.00;;;;5053082;28;20076;-57
2023/04/25 03:19:50;;;;;;;10.23;5.78;;;;;9.60;97867.00;;;;5052826;28;20136;-56
2023/04/25 03:22:16;;;;;;;5.82;5.22;;;;;9.70;97868.00;;;;5053049;28;20419;-55
2023/04/25 03:24:43;;;;;;;6.03;5.43;;;;;9.70;97873.00;;;;5053114;28;20099;-55
2023/04/25 03:27:10;;;;;;;5.93;5.30;;;;;9.60;97872.00;;;;5052935;28;20051;-57
2023/04/25 03:29:36;;;;;;;9.10;6.00;;;;;9.70;97869.00;;;;5052753;28;20136;-56
2023/04/25 03:32:04;;;;;;;8.32;6.25;;;;;9.70;97871.00;;;;5052771;28;20079;-58
2023/04/25 03:34:31;;;;;;;6.88;5.38;;;;;9.70;97881.00;;;;5054168;28;20033;-55
2023/04/25 03:36:57;;;;;;;7.97;5.40;;;;;9.80;97875.00;;;;5052951;28;20053;-56
2023/04/25 03:39:24;;;;;;;7.88;6.60;;;;;9.80;97876.00;;;;5052563;28;20045;-57
2023/04/25 03:41:52;;;;;;;8.25;6.25;;;;;9.80;97878.00;;;;5053139;28;20049;-59
2023/04/25 03:44:19;;;;;;;8.73;6.35;;;;;9.80;97875.00;;;;5038328;28;20053;-57
2023/04/25 03:46:46;;;;;;;8.82;6.50;;;;;9.70;97877.00;;;;5055802;28;20092;-56
2023/04/25 03:49:13;;;;;;;7.93;7.13;;;;;9.70;97866.00;;;;5052825;28;20047;-55
2023/04/25 03:52:00;;;;;;;8.35;6.97;;;;;9.80;97863.00;;;;5052372;28;20049;-54
2023/04/25 03:54:29;;;;;;;10.13;7.25;;;;;9.80;97859.00;;;;5052358;28;20075;-55
2023/04/25 03:57:04;;;;;;;9.27;6.95;;;;;9.80;97856.00;;;;5052680;28;20048;-54
2023/04/25 03:59:34;;;;;;;8.30;7.00;;;;;9.80;97862.00;;;;5052442;28;20049;-56
2023/04/25 04:02:01;;;;;;;10.05;8.13;;;;;9.80;97867.00;;;;5052402;28;20049;-57
2023/04/25 04:04:28;;;;;;;10.85;7.78;;;;;9.80;97869.00;;;;5052365;28;20098;-55
2023/04/25 04:06:55;;;;;;;10.27;8.23;;;;;9.90;97867.00;;;;5052632;28;20052;-56
2023/04/25 04:09:25;;;;;;;12.20;7.80;;;;;9.90;97869.00;;;;5052233;28;20072;-57
2023/04/25 04:11:53;;;;;;;13.02;9.18;;;;;9.80;97863.00;;;;5052879;28;20055;-59
2023/04/25 04:14:19;;;;;;;11.10;8.70;;;;;9.80;97856.00;;;;5053595;28;20075;-57
2023/04/25 04:16:48;;;;;;;12.57;8.32;;;;;9.80;97856.00;;;;5052241;28;20045;-55
2023/04/25 04:19:14;;;;;;;11.23;8.07;;;;;9.90;97863.00;;;;5051764;28;20052;-56
2023/04/25 04:21:46;;;;;;;10.10;7.88;;;;;9.80;97856.00;;;;5052224;28;20045;-55
2023/04/25 04:24:14;;;;;;;12.68;7.85;;;;;9.80;97862.00;;;;5053568;28;20128;-58
2023/04/25 04:26:52;;;;;;;12.43;8.43;;;;;9.80;97851.00;;;;5052171;28;20045;-57
2023/04/25 04:29:29;;;;;;;10.63;8.60;;;;;9.90;97852.00;;;;5051888;28;20075;-56
2023/04/25 04:32:00;;;;;;;12.13;8.43;;;;;9.80;97856.00;;;;5052048;28;20098;-58
2023/04/25 04:34:28;;;;;;;10.20;8.73;;;;;9.70;97852.00;;;;5052129;28;20048;-58
2023/04/25 04:36:55;;;;;;;13.13;9.95;;;;;9.80;97850.00;;;;5052004;28;20048;-59
2023/04/25 04:39:22;;;;;;;11.48;9.02;;;;;9.90;97863.00;;;;5051919;28;20045;-59
2023/04/25 04:42:21;;;;;;;9.80;8.27;;;;;9.90;97869.00;;;;5052458;28;20524;-59
2023/04/25 04:45:15;;;;;;;12.50;9.23;;;;;10.00;97872.00;;;;5052197;28;20048;-59
2023/04/25 04:47:55;;;;;;;11.27;8.55;;;;;10.00;97865.00;;;;5052011;28;20052;-59
2023/04/25 04:50:53;;;;;;;16.48;10.05;;;;;10.10;97877.00;;;;5051455;28;20413;-59
2023/04/25 04:53:41;;;;;;;13.45;9.05;;;;;10.10;97876.00;;;;5051581;28;20049;-59
2023/04/25 04:56:16;;;;;;;13.38;9.77;;;;;10.10;97878.00;;;;5051711;28;20045;-59
2023/04/25 04:58:45;;;;;;;12.30;9.45;;;;;10.00;97883.00;;;;5052719;28;20059;-59
2023/04/25 05:01:27;;;;;;;18.00;12.40;;;;;9.90;97885.00;;;;5052904;28;20040;-59
2023/04/25 05:04:00;;;;;;;13.60;11.02;;;;;9.90;97890.00;;;;5051253;28;20060;-59
2023/04/25 05:06:44;;;;;;;12.55;10.02;;;;;10.00;97896.00;;;;5036896;28;20088;-59
2023/04/25 05:09:34;;;;;;;11.93;9.98;;;;;10.00;97895.00;;;;5051773;28;20056;-59
2023/04/25 05:12:19;;;;;;;14.48;10.57;;;;;10.00;97899.00;;;;5052828;28;20607;-59
2023/04/25 05:14:46;;;;;;;14.88;10.40;;;;;10.00;97892.00;;;;5052624;28;20048;-60
2023/04/25 05:17:30;;;;;;;11.32;9.63;;;;;10.00;97894.00;;;;5051375;28;20045;-59
2023/04/25 05:20:07;;;;;;;12.82;9.98;;;;;10.00;97903.00;;;;5050876;28;20453;-59
2023/04/25 05:22:49;;;;;;;11.63;9.55;;;;;10.00;97909.00;;;;5052131;28;20135;-59
2023/04/25 05:25:26;;;;;;;15.75;10.23;;;;;9.90;97916.00;;;;5051114;28;20055;-60
2023/04/25 05:28:05;;;;;;;14.23;10.27;;;;;9.90;97912.00;;;;5051161;28;20048;-58
2023/04/25 05:30:44;;;;;;;13.90;9.77;;;;;9.90;97912.00;;;;5051236;28;20048;-60
2023/04/25 05:33:17;;;;;;;14.25;10.70;;;;;9.90;97907.00;;;;5051146;28;20152;-58
2023/04/25 05:35:44;;;;;;;13.52;9.93;;;;;9.90;97923.00;;;;5050977;28;20045;-59
2023/04/25 05:38:11;;;;;;;14.90;10.50;;;;;9.90;97920.00;;;;5051028;28;20498;-59
2023/04/25 05:40:56;;;;;;;14.43;10.55;;;;;9.90;97914.00;;;;5052534;28;20457;-59
2023/04/25 05:43:46;;;;;;;12.98;10.23;;;;;9.90;97913.00;;;;5051057;28;20049;-59
2023/04/25 05:46:27;;;;;;;15.95;11.05;;;;;9.80;97919.00;;;;5050788;28;20041;-59
2023/04/25 05:49:20;;;;;;;13.90;10.60;;;;;9.90;97928.00;;;;5050611;28;20053;-59
2023/04/25 05:51:56;;;;;;;13.55;11.05;;;;;9.90;97919.00;;;;5052187;28;20126;-60
2023/04/25 05:54:35;;;;;;;16.50;11.73;;;;;9.90;97924.00;;;;5050501;28;20053;-60
2023/04/25 05:57:03;;;;;;;14.63;11.50;;;;;9.90;97924.00;;;;5050680;28;20041;-59
2023/04/25 05:59:30;;;;;;;15.52;11.15;;;;;9.90;97934.00;;;;5050227;28;20045;-62
2023/04/25 06:01:57;;;;;;;17.35;12.13;;;;;10.00;97932.00;;;;5050413;28;20041;-58
2023/04/25 06:04:23;;;;;;;18.73;12.55;;;;;10.00;97929.00;;;;5050372;28;20045;-58
2023/04/25 06:06:50;;;;;;;17.98;13.10;;;;;10.10;97933.00;;;;5050617;28;20049;-58
2023/04/25 06:09:17;;;;;;;16.83;13.38;;;;;10.10;97931.00;;;;5051820;28;20041;-58
2023/04/25 06:11:43;;;;;;;19.63;14.00;;;;;10.00;97930.00;;;;5050499;28;20099;-58
2023/04/25 06:14:10;;;;;;;22.73;14.43;;;;;10.00;97929.00;;;;5050298;28;20045;-59
2023/04/25 06:16:41;;;;;;;18.48;13.30;;;;;9.90;97937.00;;;;5052087;28;20083;-58
2023/04/25 06:19:08;;;;;;;19.60;14.02;;;;;9.90;97929.00;;;;5055422;28;20040;-59
2023/04/25 06:21:34;;;;;;;21.55;14.48;;;;;9.90;97934.00;;;;5055673;28;20401;-59
2023/04/25 06:24:01;;;;;;;21.88;14.27;;;;;10.00;97931.00;;;;5054578;28;20053;-59
2023/04/25 06:26:28;;;;;;;20.67;15.43;;;;;10.00;97935.00;;;;5054290;28;20098;-59
2023/04/25 06:28:54;;;;;;;22.55;14.40;;;;;10.00;97939.00;;;;5054056;28;20099;-59
2023/04/25 06:31:21;;;;;;;19.60;13.90;;;;;10.00;97938.00;;;;5054067;28;20128;-59
2023/04/25 06:33:49;;;;;;;19.75;15.15;;;;;10.10;97942.00;;;;5054126;28;20080;-59
2023/04/25 06:36:16;;;;;;;19.13;13.93;;;;;10.10;97940.00;;;;5054205;28;20071;-57
2023/04/25 06:38:46;;;;;;;21.65;14.05;;;;;10.10;97937.00;;;;5053813;28;20506;-59
2023/04/25 06:41:13;;;;;;;21.98;14.70;;;;;10.20;97939.00;;;;5054023;28;20102;-58
2023/04/25 06:43:40;;;;;;;23.38;15.07;;;;;10.20;97942.00;;;;5054828;28;20041;-59
2023/04/25 06:46:21;;;;;;;23.63;16.40;;;;;10.20;97945.00;;;;5053897;28;20041;-58
2023/04/25 06:48:49;;;;;;;20.60;14.85;;;;;10.20;97948.00;;;;5053476;28;20079;-59
2023/04/25 06:51:17;;;;;;;24.05;15.55;;;;;10.20;97945.00;;;;5053915;28;20045;-59
2023/04/25 06:53:45;;;;;;;23.50;15.82;;;;;10.20;97955.00;;;;5053691;28;20417;-59
2023/04/25 06:56:23;;;;;;;22.30;15.32;;;;;10.20;97949.00;;;;5054981;28;20045;-59
2023/04/25 06:58:56;;;;;;;24.10;15.32;;;;;10.20;97956.00;;;;5053647;28;20048;-58
2023/04/25 07:01:28;;;;;;;21.55;15.52;;;;;10.30;97961.00;;;;5054003;28;20128;-58
2023/04/25 07:03:56;;;;;;;22.23;15.30;;;;;10.30;97957.00;;;;5053761;28;20095;-59
2023/04/25 07:06:25;;;;;;;22.80;14.95;;;;;10.40;97966.00;;;;5054833;28;20128;-59
2023/04/25 07:08:52;;;;;;;19.45;14.52;;;;;10.30;97965.00;;;;5053982;28;20053;-57
2023/04/25 07:11:19;;;;;;;18.95;13.82;;;;;10.40;97974.00;;;;5053731;28;20056;-58
2023/04/25 07:13:46;;;;;;;21.17;14.77;;;;;10.50;97960.00;;;;5053741;28;20049;-58
2023/04/25 07:16:12;;;;;;;20.58;14.90;;;;;10.60;97970.00;;;;5053796;28;20091;-58
2023/04/25 07:18:39;;;;;;;20.50;13.50;;;;;10.70;97964.00;;;;5053408;28;20098;-58
2023/04/25 07:21:06;;;;;;;19.77;13.52;;;;;10.90;97966.00;;;;5055847;28;20064;-58
2023/04/25 07:23:34;;;;;;;19.13;12.50;;;;;10.90;97976.00;;;;5054675;28;20048;-58
2023/04/25 07:26:07;;;;;;;16.33;13.15;;;;;10.90;97981.00;;;;5055053;28;20059;-59
2023/04/25 07:28:35;;;;;;;18.05;13.50;;;;;10.90;97981.00;;;;5053636;28;20145;-59
2023/04/25 07:31:02;;;;;;;18.25;12.98;;;;;10.90;97977.00;;;;5055227;28;20048;-59
2023/04/25 07:33:31;;;;;;;18.77;12.98;;;;;11.10;97975.00;;;;5053831;28;20056;-59
2023/04/25 07:35:58;;;;;;;16.98;11.27;;;;;11.20;97971.00;;;;5055982;28;20045;-58
2023/04/25 07:38:24;;;;;;;14.07;11.32;;;;;11.30;97981.00;;;;5056005;28;20045;-59
2023/04/25 07:40:51;;;;;;;16.55;11.55;;;;;11.40;97974.00;;;;5054662;28;20540;-59
2023/04/25 07:43:17;;;;;;;18.00;13.02;;;;;11.40;97980.00;;;;5054448;28;20055;-59
2023/04/25 07:45:52;;;;;;;16.75;12.20;;;;;11.50;97980.00;;;;5054916;28;20135;-59
2023/04/25 07:48:19;;;;;;;17.05;11.85;;;;;11.60;97985.00;;;;5053746;28;20055;-57
2023/04/25 07:50:48;;;;;;;16.70;12.82;;;;;11.80;97983.00;;;;5053287;28;20044;-59
2023/04/25 07:53:17;;;;;;;15.48;11.93;;;;;11.80;97986.00;;;;5053811;28;20099;-59
2023/04/25 07:55:52;;;;;;;15.98;10.82;;;;;11.80;97991.00;;;;5053709;28;20075;-60
2023/04/25 07:58:21;;;;;;;14.93;10.30;;;;;11.80;97990.00;;;;5054191;28;20505;-58
2023/04/25 08:00:50;;;;;;;14.75;10.77;;;;;11.80;97995.00;;;;5053788;28;20570;-58
2023/04/25 08:03:28;;;;;;;16.23;11.05;;;;;11.80;98004.00;;;;5054747;28;20070;-58
2023/04/25 08:05:57;;;;;;;14.70;10.73;;;;;11.80;98006.00;;;;5055681;28;20048;-59
2023/04/25 08:08:26;;;;;;;13.48;10.40;;;;;11.50;98010.00;;;;5054204;28;20048;-58
2023/04/25 08:10:53;;;;;;;16.33;9.40;;;;;11.20;98029.00;;;;5036360;28;20128;-59
2023/04/25 08:13:20;;;;;;;11.25;7.43;;;;;11.00;98026.00;;;;5052977;28;20064;-59
2023/04/25 08:15:47;;;;;;;16.70;8.57;;;;;10.70;98038.00;;;;5036772;28;20041;-59
2023/04/25 08:18:14;;;;;;;15.05;7.82;;;;;10.40;98039.00;;;;5052897;28;20084;-59
2023/04/25 08:20:43;;;;;;;11.35;7.75;;;;;10.10;98041.00;;;;5052599;28;20045;-58
2023/04/25 08:23:12;;;;;;;12.55;8.00;;;;;9.90;98045.00;;;;5052947;28;20151;-58
2023/04/25 08:25:59;;;;;;;14.45;8.05;;;;;9.60;98071.00;;;;5049522;28;20057;-57
2023/04/25 08:28:27;;;;;;;14.48;7.80;;;;;9.50;98054.00;;;;5052283;28;20128;-58
2023/04/25 08:30:56;;;;;;;13.77;8.63;;;;;9.40;98064.00;;;;5052794;28;20565;-60
2023/04/25 08:33:31;;;;;;;16.63;9.07;;;;;9.40;98084.00;;;;5055513;28;20057;-59
2023/04/25 08:36:03;;;;;;;15.20;8.38;;;;;9.50;98069.00;;;;5053087;28;20056;-59
2023/04/25 08:38:31;;;;;;;15.38;9.05;;;;;9.50;98083.00;;;;5052233;28;20516;-59
2023/04/25 08:41:00;;;;;;;15.18;8.38;;;;;9.60;98093.00;;;;5052099;28;20684;-60
2023/04/25 08:43:29;;;;;;;17.27;9.32;;;;;9.70;98100.00;;;;5052303;28;20095;-59
2023/04/25 08:46:00;;;;;;;16.67;8.23;;;;;9.80;98095.00;;;;5054354;28;20048;-60
2023/04/25 08:48:45;;;;;;;13.15;8.63;;;;;9.80;98107.00;;;;5053388;28;20041;-59
2023/04/25 08:51:24;;;;;;;18.70;10.05;;;;;9.90;98103.00;;;;5057375;28;20045;-59
2023/04/25 08:53:52;;;;;;;14.45;8.25;;;;;10.00;98111.00;;;;5055389;28;20052;-59
2023/04/25 08:56:23;;;;;;;16.20;8.63;;;;;10.00;98109.00;;;;5057973;28;20055;-59
2023/04/25 08:58:50;;;;;;;16.85;8.15;;;;;10.00;98126.00;;;;5057437;28;20047;-59
2023/04/25 09:01:18;;;;;;;16.80;8.25;;;;;10.00;98123.00;;;;5053967;28;20045;-60
2023/04/25 09:03:50;;;;;;;17.70;9.05;;;;;9.90;98119.00;;;;5052231;28;20149;-58
2023/04/25 09:06:19;;;;;;;14.52;8.77;;;;;10.00;98125.00;;;;5052092;28;20087;-59
2023/04/25 09:08:50;;;;;;;16.92;9.30;;;;;10.00;98126.00;;;;5051801;28;20045;-59
2023/04/25 09:11:17;;;;;;;17.30;8.95;;;;;9.90;98130.00;;;;5052582;28;20041;-59
2023/04/25 09:13:46;;;;;;;15.82;9.15;;;;;10.00;98141.00;;;;5052443;28;20057;-59
2023/04/25 09:16:55;;;;;;;16.73;8.75;;;;;10.30;98145.00;;;;5052284;28;20091;-59
2023/04/25 09:19:40;;;;;;;13.20;8.32;;;;;10.40;98150.00;;;;5052940;28;20179;-57
2023/04/25 09:22:27;;;;;;;15.48;8.27;;;;;10.60;98143.00;;;;5051513;28;20049;-56
2023/04/25 09:24:54;;;;;;;15.82;9.07;;;;;10.80;98150.00;;;;5051433;28;20056;-56
2023/04/25 09:27:26;;;;;;;13.38;8.57;;;;;11.00;98152.00;;;;5051775;28;20037;-56
2023/04/25 09:30:02;;;;;;;15.70;8.85;;;;;11.00;98164.00;;;;5051504;28;20053;-58
2023/04/25 09:32:46;;;;;;;16.02;7.88;;;;;11.10;98171.00;;;;5051980;28;20041;-58
2023/04/25 09:35:25;;;;;;;14.43;7.85;;;;;11.00;98176.00;;;;5051864;28;20048;-58
2023/04/25 09:37:53;;;;;;;15.50;8.73;;;;;10.90;98174.00;;;;5051814;28;20048;-57
2023/04/25 09:40:43;;;;;;;12.48;7.75;;;;;11.10;98185.00;;;;5052639;28;20136;-56
2023/04/25 09:43:22;;;;;;;13.65;7.80;;;;;11.10;98177.00;;;;5051611;28;20468;-57
2023/04/25 09:45:52;;;;;;;18.98;7.93;;;;;11.10;98177.00;;;;5055489;28;20098;-57
2023/04/25 09:48:21;;;;;;;14.18;7.45;;;;;11.30;98174.00;;;;5057715;28;20044;-55
2023/04/25 09:51:05;;;;;;;14.40;7.97;;;;;11.60;98179.00;;;;5057155;28;20049;-59
2023/04/25 09:53:35;;;;;;;11.82;8.23;;;;;11.90;98184.00;;;;5062479;28;20056;-57
2023/04/25 09:56:12;;;;;;;11.38;7.63;;;;;12.30;98185.00;;;;5062327;28;20044;-57
2023/04/25 09:58:40;;;;;;;13.07;7.82;;;;;12.50;98190.00;;;;5059998;28;20460;-57
2023/04/25 10:01:10;;;;;;;12.82;7.63;;;;;12.60;98189.00;;;;5058915;28;20048;-59
2023/04/25 10:03:52;;;;;;;13.07;7.30;;;;;12.70;98198.00;;;;5058788;28;20401;-56
2023/04/25 10:06:36;;;;;;;10.55;7.10;;;;;12.70;98201.00;;;;5058707;28;20072;-60
2023/04/25 10:09:04;;;;;;;12.88;7.28;;;;;12.80;98204.00;;;;5058532;28;20049;-59
2023/04/25 10:11:31;;;;;;;11.35;5.88;;;;;12.70;98202.00;;;;5060973;28;20128;-63
2023/04/25 10:14:00;;;;;;;13.20;6.10;;;;;12.10;98198.00;;;;5062274;28;20049;-59
2023/04/25 10:16:27;;;;;;;12.20;6.60;;;;;11.80;98196.00;;;;5061468;28;20136;-59
2023/04/25 10:18:55;;;;;;;10.02;6.53;;;;;12.00;98197.00;;;;5061284;28;20041;-58
2023/04/25 10:21:21;;;;;;;12.23;6.28;;;;;12.20;98197.00;;;;5060125;28;20095;-59
2023/04/25 10:23:49;;;;;;;8.43;6.07;;;;;12.30;98200.00;;;;5061588;28;20055;-58
2023/04/25 10:26:17;;;;;;;12.05;6.53;;;;;12.50;98208.00;;;;5061879;28;20040;-59
2023/04/25 10:28:58;;;;;;;9.73;6.05;;;;;12.80;98201.00;;;;5059941;28;20045;-59
2023/04/25 10:31:25;;;;;;;9.82;5.95;;;;;13.00;98204.00;;;;5061634;28;20045;-58
2023/04/25 10:33:53;;;;;;;13.52;5.88;;;;;12.90;98199.00;;;;5061568;28;20467;-59
2023/04/25 10:36:24;;;;;;;10.27;5.85;;;;;12.60;98191.00;;;;5062380;28;20049;-59
2023/04/25 10:38:52;;;;;;;15.10;6.20;;;;;12.70;98195.00;;;;5044443;28;20061;-59
2023/04/25 10:41:22;;;;;;;12.35;6.95;;;;;13.00;98199.00;;;;5061152;28;20076;-58
2023/04/25 10:43:50;;;;;;;13.68;6.20;;;;;13.40;98205.00;;;;5060653;28;20068;-59
2023/04/25 10:46:19;;;;;;;9.20;5.32;;;;;13.40;98203.00;;;;5061140;28;20494;-59
2023/04/25 10:48:52;;;;;;;5.05;4.45;;;;;13.40;98199.00;;;;5061337;28;20048;-59
2023/04/25 10:51:27;;;;;;;10.40;4.70;;;;;13.30;98190.00;;;;5060733;28;20049;-58
2023/04/25 10:54:07;;;;;;;11.20;4.85;;;;;13.00;98206.00;;;;5058645;28;20055;-59
2023/04/25 10:56:39;;;;;;;10.20;4.82;;;;;13.00;98202.00;;;;5060504;28;20112;-59
2023/04/25 10:59:11;;;;;;;6.50;3.88;;;;;13.10;98211.00;;;;5060387;28;20041;-59
2023/04/25 11:01:43;;;;;;;7.78;4.15;;;;;13.00;98201.00;;;;5059892;28;20045;-59
2023/04/25 11:04:23;;;;;;;8.60;4.97;;;;;13.40;98199.00;;;;5055117;28;20049;-59
2023/04/25 11:07:09;;;;;;;5.57;3.58;;;;;13.80;98206.00;;;;5054553;28;20152;-58
2023/04/25 11:09:38;;;;;;;6.65;3.80;;;;;13.80;98205.00;;;;5056217;28;20048;-58
2023/04/25 11:12:08;;;;;;;6.90;3.90;;;;;13.90;98207.00;;;;5058871;28;20095;-58
2023/04/25 11:14:35;;;;;;;4.28;3.55;;;;;14.00;98216.00;;;;5058353;28;20067;-59
2023/04/25 11:17:02;;;;;;;5.43;3.08;;;;;14.00;98216.00;;;;5057591;28;20045;-60
2023/04/25 11:19:29;;;;;;;4.88;3.50;;;;;14.00;98221.00;;;;5057888;28;20075;-58
2023/04/25 11:22:00;;;;;;;6.75;3.53;;;;;13.90;98223.00;;;;5057867;28;20045;-58
2023/04/25 11:24:31;;;;;;;4.32;3.75;;;;;13.80;98221.00;;;;5056009;28;20049;-59
2023/04/25 11:26:59;;;;;;;4.32;3.17;;;;;13.80;98229.00;;;;5056641;28;20094;-58
2023/04/25 11:29:26;;;;;;;5.95;2.90;;;;;13.80;98233.00;;;;5055457;28;20065;-59
2023/04/25 11:31:57;;;;;;;6.40;3.25;;;;;13.80;98233.00;;;;5055349;28;20502;-59
2023/04/25 11:34:25;;;;;;;6.00;3.00;;;;;13.70;98236.00;;;;5056791;28;20040;-60
2023/04/25 11:36:52;;;;;;;7.40;3.42;;;;;13.70;98236.00;;;;5055760;28;20051;-60
2023/04/25 11:39:20;;;;;;;8.20;3.63;;;;;13.80;98235.00;;;;5053933;28;20052;-59
2023/04/25 11:41:47;;;;;;;6.82;3.45;;;;;13.90;98233.00;;;;5055759;28;20052;-59
2023/04/25 11:44:17;;;;;;;5.03;3.17;;;;;13.90;98236.00;;;;5055597;28;20060;-59
2023/04/25 11:46:45;;;;;;;7.75;3.33;;;;;13.90;98232.00;;;;5056152;28;20047;-59
2023/04/25 11:49:13;;;;;;;4.95;3.30;;;;;14.00;98235.00;;;;5055157;28;20524;-58
2023/04/25 11:51:48;;;;;;;6.18;3.50;;;;;14.30;98227.00;;;;5054688;28;20045;-58
2023/04/25 11:54:15;;;;;;;6.90;3.72;;;;;14.50;98225.00;;;;5055056;28;20051;-59
2023/04/25 11:56:43;;;;;;;6.85;3.42;;;;;14.60;98227.00;;;;5055689;28;20505;-60
2023/04/25 11:59:10;;;;;;;5.30;3.03;;;;;14.80;98222.00;;;;5054943;28;20456;-58
2023/04/25 12:01:47;;;;;;;4.03;3.20;;;;;14.80;98227.00;;;;5055311;28;20077;-59
2023/04/25 12:04:14;;;;;;;8.27;3.47;;;;;14.70;98238.00;;;;5055746;28;20045;-58
2023/04/25 12:06:43;;;;;;;4.38;3.33;;;;;14.40;98232.00;;;;5055693;28;20049;-59
2023/04/25 12:09:12;;;;;;;4.55;3.03;;;;;14.30;98238.00;;;;5056197;28;20067;-59
2023/04/25 12:11:43;;;;;;;4.68;2.78;;;;;14.20;98250.00;;;;5056891;28;20045;-60
2023/04/25 12:14:10;;;;;;;4.75;3.38;;;;;14.00;98245.00;;;;5054929;28;20055;-57
2023/04/25 12:16:44;;;;;;;4.35;3.63;;;;;14.00;98240.00;;;;5056163;28;20047;-59
2023/04/25 12:19:15;;;;;;;;;;;;;14.10;98252.00;;;;5056374;28;20052;-59
2023/04/25 12:21:42;;;;;;;4.93;3.35;;;;;14.10;98241.00;;;;5055998;28;19927;-59
2023/04/25 12:24:25;;;;;;;5.60;2.95;;;;;14.20;98249.00;;;;5039365;28;20045;-59
2023/04/25 12:27:03;;;;;;;3.78;2.85;;;;;14.20;98246.00;;;;5054649;28;20068;-58
2023/04/25 12:29:32;;;;;;;3.97;2.97;;;;;14.30;98251.00;;;;5054081;28;20056;-55
2023/04/25 12:32:13;;;;;;;4.80;3.38;;;;;14.40;98249.00;;;;5053890;28;20045;-55